Time;durP1;ratioP1;P1;durP2;ratioP2;P2;SDS_P1;SDS_P2;PMS_P1;PMS_P2;Temp;Humidity;BMP_temperature;BMP_pressure;BME280_temperature;BME280_humidity;BME280_pressure;Samples;Min_cycle;Max_cycle;Signal;HPM_P1;HPM_P2
2023/08/22 00:00:01;;;;;;;0.50;0.33;;;;;;;25.21;51.62;95549.81;5085508;28;20795;-55
2023/08/22 00:02:29;;;;;;;0.97;0.80;;;;;;;25.14;51.29;95545.03;5098690;28;20498;-55
2023/08/22 00:04:58;;;;;;;0.60;0.60;;;;;;;25.06;51.97;95543.31;5112188;28;20827;-55
2023/08/22 00:07:26;;;;;;;0.60;0.50;;;;;;;25.14;52.12;95538.81;5111395;28;20431;-55
2023/08/22 00:09:56;;;;;;;0.50;0.40;;;;;;;25.31;52.35;95534.88;5111296;28;20533;-55
2023/08/22 00:12:24;;;;;;;1.70;1.60;;;;;;;25.27;51.40;95539.47;5112247;28;20843;-55
2023/08/22 00:14:53;;;;;;;1.90;0.77;;;;;;;25.06;52.07;95535.16;5112331;28;20864;-55
2023/08/22 00:17:21;;;;;;;1.13;1.03;;;;;;;25.25;52.21;95540.59;5111613;28;20435;-55
2023/08/22 00:19:50;;;;;;;0.93;0.77;;;;;;;25.23;53.29;95539.38;5112017;28;20444;-55
2023/08/22 00:22:18;;;;;;;0.90;0.80;;;;;;;25.23;52.77;95537.44;5111524;28;20848;-55
2023/08/22 00:24:46;;;;;;;0.60;0.50;;;;;;;24.93;52.48;95547.28;5111725;28;20439;-55
2023/08/22 00:27:16;;;;;;;0.90;0.80;;;;;;;25.00;53.79;95554.78;5110716;28;20440;-55
2023/08/22 00:29:44;;;;;;;0.70;0.57;;;;;;;24.93;52.47;95550.00;5111546;28;20563;-55
2023/08/22 00:32:12;;;;;;;1.03;1.00;;;;;;;24.75;52.71;95542.56;5111150;28;20475;-55
2023/08/22 00:34:41;;;;;;;0.90;0.77;;;;;;;24.86;53.74;95551.75;5111510;28;20463;-55
2023/08/22 00:37:09;;;;;;;11.10;1.40;;;;;;;24.70;53.19;95554.47;5110725;28;20440;-55
2023/08/22 00:39:37;;;;;;;0.70;0.70;;;;;;;24.86;53.13;95530.06;5111292;28;20432;-55
2023/08/22 00:42:06;;;;;;;1.33;0.63;;;;;;;24.92;53.47;95528.66;5085150;28;20436;-55
2023/08/22 00:44:36;;;;;;;0.80;0.80;;;;;;;24.70;53.47;95549.06;5112039;28;20431;-56
2023/08/22 00:47:05;;;;;;;0.87;0.83;;;;;;;24.68;53.42;95545.13;5111550;28;20444;-55
2023/08/22 00:49:34;;;;;;;0.87;0.83;;;;;;;24.57;54.23;95548.38;5110609;28;20475;-55
2023/08/22 00:52:04;;;;;;;0.83;0.80;;;;;;;24.42;54.00;95551.09;5114328;28;20469;-55
2023/08/22 00:54:33;;;;;;;0.50;0.50;;;;;;;24.48;53.56;95552.41;5115372;28;20440;-55
2023/08/22 00:57:01;;;;;;;0.60;0.40;;;;;;;24.68;55.19;95547.84;5115890;28;20520;-56
2023/08/22 00:59:30;;;;;;;0.60;0.50;;;;;;;24.49;54.01;95516.03;5115835;28;20443;-55
2023/08/22 01:02:00;;;;;;;0.80;0.50;;;;;;;24.39;54.24;95484.06;5115769;28;20521;-56
2023/08/22 01:04:28;;;;;;;1.17;1.00;;;;;;;24.76;53.65;95553.06;5115351;27;20434;-56
2023/08/22 01:07:05;;;;;;;0.80;0.80;;;;;;;24.90;53.52;95553.41;5115289;28;20430;-56
2023/08/22 01:09:38;;;;;;;0.73;0.40;;;;;;;24.77;53.77;95551.16;5115476;28;20479;-56
2023/08/22 01:12:12;;;;;;;1.17;1.07;;;;;;;24.74;53.49;95558.06;5115459;28;20944;-56
2023/08/22 01:14:46;;;;;;;0.50;0.43;;;;;;;24.94;54.01;95557.00;5115016;28;20465;-56
2023/08/22 01:17:16;;;;;;;0.60;0.50;;;;;;;24.99;55.24;95548.59;5114829;28;20998;-56
2023/08/22 01:19:46;;;;;;;0.50;0.40;;;;;;;24.89;53.82;95551.84;5114593;28;20531;-56
2023/08/22 01:22:16;;;;;;;0.57;0.40;;;;;;;24.80;53.65;95559.38;5114761;27;20435;-56
2023/08/22 01:24:44;;;;;;;0.70;0.70;;;;;;;24.71;54.09;95558.78;5115057;28;20431;-56
2023/08/22 01:27:15;;;;;;;0.63;0.50;;;;;;;24.46;55.26;95562.81;5114887;28;20519;-56
2023/08/22 01:29:52;;;;;;;0.60;0.50;;;;;;;24.37;54.31;95556.78;5115050;28;20467;-56
2023/08/22 01:32:27;;;;;;;0.73;0.70;;;;;;;24.39;54.59;95554.50;5114794;28;20980;-55
2023/08/22 01:34:59;;;;;;;0.57;0.40;;;;;;;24.39;54.27;95557.22;5114028;28;20945;-55
2023/08/22 01:37:31;;;;;;;0.70;0.57;;;;;;;23.97;55.20;95554.22;5102983;28;20463;-56
2023/08/22 01:40:02;;;;;;;0.70;0.70;;;;;;;23.94;55.66;95558.41;5114426;28;20440;-56
2023/08/22 01:42:33;;;;;;;0.80;0.60;;;;;;;23.77;55.75;95556.03;5115047;28;20539;-56
2023/08/22 01:45:01;;;;;;;0.60;0.50;;;;;;;23.72;55.93;95561.72;5114079;28;20436;-56
2023/08/22 01:47:29;;;;;;;1.03;0.93;;;;;;;23.64;55.56;95538.28;5114855;28;20439;-56
2023/08/22 01:49:58;;;;;;;0.53;0.50;;;;;;;23.75;55.97;95563.72;5100404;28;20573;-56
2023/08/22 01:52:26;;;;;;;1.30;1.20;;;;;;;23.33;55.95;95508.41;5114449;28;20464;-56
2023/08/22 01:54:56;;;;;;;0.60;0.60;;;;;;;23.59;56.41;95565.59;5114107;28;20511;-56
2023/08/22 01:57:24;;;;;;;0.70;0.70;;;;;;;23.62;56.47;95569.53;5114336;28;20443;-56
2023/08/22 01:59:52;;;;;;;0.87;0.87;;;;;;;23.68;56.08;95568.16;5114121;28;20435;-56
2023/08/22 02:02:21;;;;;;;0.83;0.70;;;;;;;23.53;56.42;95563.50;5113384;28;20527;-56
2023/08/22 02:04:50;;;;;;;0.63;0.50;;;;;;;23.52;56.23;95567.31;5113523;28;20489;-56
2023/08/22 02:07:18;;;;;;;1.20;0.60;;;;;;;23.57;56.00;95558.97;5114155;28;20485;-56
2023/08/22 02:09:47;;;;;;;2.17;1.20;;;;;;;23.60;56.18;95561.00;5114236;28;20466;-56
2023/08/22 02:12:16;;;;;;;0.90;0.73;;;;;;;23.74;55.83;95556.72;5113798;28;20488;-56
2023/08/22 02:14:44;;;;;;;2.93;1.43;;;;;;;23.72;56.20;95558.22;5114207;28;20489;-56
2023/08/22 02:17:13;;;;;;;0.67;0.67;;;;;;;24.03;56.33;95559.03;5113745;28;20519;-56
2023/08/22 02:19:41;;;;;;;0.70;0.70;;;;;;;23.93;55.01;95550.66;5114335;28;20537;-56
2023/08/22 02:22:09;;;;;;;0.50;0.37;;;;;;;24.23;54.52;95551.84;5113846;28;20443;-56
2023/08/22 02:24:38;;;;;;;0.60;0.60;;;;;;;23.90;55.32;95551.34;5113838;28;20817;-56
2023/08/22 02:27:06;;;;;;;1.07;0.67;;;;;;;23.77;56.03;95556.03;5113638;28;20492;-56
2023/08/22 02:29:36;;;;;;;2.30;1.47;;;;;;;23.71;55.57;95562.84;5112869;28;20432;-56
2023/08/22 02:32:04;;;;;;;0.63;0.40;;;;;;;23.90;55.59;95565.69;5113739;27;20436;-56
2023/08/22 02:34:33;;;;;;;0.70;0.60;;;;;;;23.86;55.13;95542.31;5113866;28;20566;-56
2023/08/22 02:37:02;;;;;;;0.80;0.40;;;;;;;24.09;56.32;95558.78;5113719;28;20523;-56
2023/08/22 02:39:31;;;;;;;0.70;0.50;;;;;;;24.07;55.60;95575.38;5113324;28;20436;-56
2023/08/22 02:41:59;;;;;;;0.60;0.50;;;;;;;24.58;57.31;95557.31;5113895;28;20527;-56
2023/08/22 02:44:27;;;;;;;0.63;0.50;;;;;;;24.45;54.04;95561.25;5113105;28;20881;-56
2023/08/22 02:46:57;;;;;;;0.50;0.30;;;;;;;24.19;55.31;95556.34;5112801;28;20471;-56
2023/08/22 02:49:25;;;;;;;1.13;0.77;;;;;;;23.84;55.27;95560.84;5113314;28;20547;-56
2023/08/22 02:51:54;;;;;;;0.97;0.97;;;;;;;23.61;55.92;95557.91;5112965;28;20532;-56
2023/08/22 02:54:22;;;;;;;0.93;0.83;;;;;;;23.40;55.52;95507.88;5112525;28;20444;-56
2023/08/22 02:56:50;;;;;;;0.60;0.57;;;;;;;24.07;55.65;95559.13;5087040;28;20543;-56
2023/08/22 02:59:20;;;;;;;0.50;0.30;;;;;;;24.32;56.22;95565.97;5112219;28;20447;-56
2023/08/22 03:01:48;;;;;;;0.90;0.50;;;;;;;24.62;55.89;95564.38;5113238;28;20427;-57
2023/08/22 03:04:18;;;;;;;0.47;0.40;;;;;;;24.60;54.38;95565.88;5112819;28;20432;-57
2023/08/22 03:06:46;;;;;;;0.60;0.60;;;;;;;24.80;56.22;95570.22;5113057;28;20488;-56
2023/08/22 03:09:15;;;;;;;0.83;0.83;;;;;;;24.98;54.48;95565.19;5112187;28;20489;-57
2023/08/22 03:11:43;;;;;;;0.73;0.73;;;;;;;25.04;54.33;95564.56;5112123;28;20479;-57
2023/08/22 03:14:12;;;;;;;0.40;0.30;;;;;;;25.06;55.95;95577.78;5111652;28;20436;-56
2023/08/22 03:16:40;;;;;;;0.40;0.30;;;;;;;24.82;53.24;95567.94;5112785;28;20436;-57
2023/08/22 03:19:09;;;;;;;0.40;0.30;;;;;;;24.70;53.65;95570.75;5111908;28;20432;-57
2023/08/22 03:21:38;;;;;;;0.87;0.87;;;;;;;24.53;55.02;95579.25;5112381;28;20475;-56
2023/08/22 03:24:07;;;;;;;0.40;0.30;;;;;;;24.84;57.17;95573.03;5112361;28;20424;-56
2023/08/22 03:26:35;;;;;;;0.50;0.40;;;;;;;24.81;54.93;95571.03;5112608;28;20447;-56
2023/08/22 03:29:04;;;;;;;0.60;0.37;;;;;;;24.87;56.60;95575.81;5112409;28;20439;-56
2023/08/22 03:31:32;;;;;;;0.53;0.40;;;;;;;24.88;55.31;95582.81;5112551;28;20479;-56
2023/08/22 03:34:00;;;;;;;0.50;0.40;;;;;;;25.00;55.09;95584.59;5111760;28;20450;-56
2023/08/22 03:36:29;;;;;;;0.90;0.50;;;;;;;25.01;56.14;95584.28;5112071;28;20456;-56
2023/08/22 03:38:58;;;;;;;0.53;0.30;;;;;;;25.10;57.21;95586.75;5112094;28;20436;-56
2023/08/22 03:41:27;;;;;;;0.50;0.40;;;;;;;24.86;54.83;95562.63;5111943;28;20501;-57
2023/08/22 03:43:55;;;;;;;0.73;0.60;;;;;;;24.29;55.60;95531.44;5111625;28;20886;-56
2023/08/22 03:46:23;;;;;;;1.00;0.90;;;;;;;24.77;56.44;95589.88;5111705;28;20440;-56
2023/08/22 03:49:05;;;;;;;0.60;0.50;;;;;;;24.86;56.82;95585.09;5112085;28;20494;-57
2023/08/22 03:51:33;;;;;;;0.40;0.30;;;;;;;24.90;55.32;95587.88;5111850;28;20510;-57
2023/08/22 03:54:03;;;;;;;1.30;1.30;;;;;;;24.99;55.55;95591.97;5112072;28;20469;-57
2023/08/22 03:56:31;;;;;;;0.63;0.50;;;;;;;25.13;54.20;95589.56;5111779;28;21002;-57
2023/08/22 03:59:00;;;;;;;0.50;0.30;;;;;;;24.98;54.31;95582.25;5111584;28;20440;-57
2023/08/22 04:01:28;;;;;;;0.40;0.30;;;;;;;24.82;55.23;95567.94;5097819;28;20528;-57
2023/08/22 04:03:56;;;;;;;0.50;0.30;;;;;;;25.06;54.72;95592.13;5103630;28;20436;-57
2023/08/22 04:06:25;;;;;;;0.70;0.50;;;;;;;25.02;54.63;95593.97;5111533;28;20526;-57
2023/08/22 04:08:53;;;;;;;0.60;0.50;;;;;;;25.06;56.34;95585.91;5111828;28;20504;-57
2023/08/22 04:11:23;;;;;;;0.50;0.40;;;;;;;25.07;56.79;95585.53;5111364;28;20468;-57
2023/08/22 04:13:51;;;;;;;0.50;0.30;;;;;;;24.72;53.54;95592.84;5111636;28;20431;-57
2023/08/22 04:16:19;;;;;;;0.50;0.30;;;;;;;24.79;56.19;95601.22;5111051;28;20854;-57
2023/08/22 04:18:48;;;;;;;0.70;0.70;;;;;;;24.90;55.65;95599.50;5111333;28;20447;-58
2023/08/22 04:21:16;;;;;;;0.40;0.30;;;;;;;24.92;56.49;95591.78;5111945;28;20467;-57
2023/08/22 04:23:44;;;;;;;1.73;0.67;;;;;;;24.98;55.00;95592.31;5111186;28;20504;-56
2023/08/22 04:26:13;;;;;;;0.50;0.30;;;;;;;25.14;55.49;95604.72;5112549;28;20518;-56
2023/08/22 04:28:43;;;;;;;0.40;0.30;;;;;;;24.88;54.87;95557.63;5115794;28;20436;-56
2023/08/22 04:31:12;;;;;;;0.60;0.60;;;;;;;25.33;55.91;95609.34;5115797;28;20475;-56
2023/08/22 04:33:40;;;;;;;0.60;0.30;;;;;;;25.33;54.56;95611.28;5115252;28;20853;-56
2023/08/22 04:36:09;;;;;;;0.50;0.40;;;;;;;25.42;54.91;95603.72;5115376;28;20949;-56
2023/08/22 04:38:37;;;;;;;0.60;0.60;;;;;;;25.40;55.01;95606.78;5115254;28;20432;-56
2023/08/22 04:41:05;;;;;;;0.50;0.30;;;;;;;25.33;53.53;95590.38;5115335;28;20467;-56
2023/08/22 04:43:34;;;;;;;0.50;0.30;;;;;;;25.32;55.17;95580.66;5115441;28;20440;-56
2023/08/22 04:46:03;;;;;;;0.40;0.30;;;;;;;25.29;54.82;95575.16;5114724;28;20443;-55
2023/08/22 04:48:32;;;;;;;0.60;0.37;;;;;;;25.55;53.40;95610.63;5115163;28;20462;-55
2023/08/22 04:51:00;;;;;;;0.57;0.57;;;;;;;25.33;54.99;95578.72;5114837;28;20497;-55
2023/08/22 04:53:28;;;;;;;0.50;0.40;;;;;;;25.58;54.64;95609.88;5115484;28;20439;-55
2023/08/22 04:55:57;;;;;;;0.40;0.30;;;;;;;25.47;54.96;95603.47;5115146;28;20428;-56
2023/08/22 04:58:26;;;;;;;0.67;0.37;;;;;;;25.29;54.87;95602.28;5115010;28;20436;-56
2023/08/22 05:00:54;;;;;;;0.60;0.50;;;;;;;24.99;54.56;95621.03;5115404;28;20443;-56
2023/08/22 05:03:24;;;;;;;0.90;0.90;;;;;;;24.87;56.84;95619.19;5088970;28;20443;-54
2023/08/22 05:05:52;;;;;;;0.50;0.43;;;;;;;25.04;56.76;95612.59;5114357;28;20500;-53
2023/08/22 05:08:21;;;;;;;0.60;0.40;;;;;;;25.22;55.97;95606.41;5114725;28;20451;-53
2023/08/22 05:10:49;;;;;;;0.50;0.40;;;;;;;25.48;55.21;95608.53;5101102;28;20515;-54
2023/08/22 05:13:17;;;;;;;1.03;0.40;;;;;;;25.63;55.61;95601.47;5114875;28;20479;-54
2023/08/22 05:15:45;;;;;;;0.50;0.43;;;;;;;25.85;54.58;95606.97;5114235;28;20469;-55
2023/08/22 05:18:14;;;;;;;0.50;0.40;;;;;;;25.95;54.29;95594.72;5114989;28;20534;-55
2023/08/22 05:20:44;;;;;;;0.50;0.50;;;;;;;25.76;54.21;95611.81;5114415;28;20451;-55
2023/08/22 05:23:12;;;;;;;1.33;1.27;;;;;;;25.27;56.22;95602.66;5114566;28;20435;-54
2023/08/22 05:25:40;;;;;;;1.77;1.03;;;;;;;25.01;57.15;95610.59;5113651;28;20488;-54
2023/08/22 05:28:09;;;;;;;1.13;1.13;;;;;;;24.82;55.96;95613.28;5114529;28;20440;-54
2023/08/22 05:30:38;;;;;;;1.50;0.93;;;;;;;24.62;56.72;95558.94;5114656;28;20465;-54
2023/08/22 05:33:06;;;;;;;0.90;0.77;;;;;;;25.17;55.17;95593.13;5114539;28;20487;-55
2023/08/22 05:35:35;;;;;;;1.10;1.03;;;;;;;25.08;55.39;95559.22;5114429;28;20541;-55
2023/08/22 05:38:23;;;;;;;1.20;1.10;;;;;;;25.31;54.66;95610.84;5114267;28;20944;-55
2023/08/22 05:40:51;;;;;;;1.43;1.00;;;;;;;24.93;54.56;95517.44;5091866;28;20439;-54
2023/08/22 05:43:20;;;;;;;1.30;0.90;;;;;;;26.09;54.07;95611.28;5114339;28;20443;-55
2023/08/22 05:45:48;;;;;;;0.80;0.80;;;;;;;25.94;53.33;95616.81;5114231;28;20428;-54
2023/08/22 05:48:16;;;;;;;1.10;1.10;;;;;;;25.60;53.26;95607.63;5113758;28;20439;-54
2023/08/22 05:50:45;;;;;;;1.13;1.13;;;;;;;25.95;53.13;95605.59;5113582;28;20471;-54
2023/08/22 05:53:13;;;;;;;2.00;1.00;;;;;;;26.08;52.72;95563.53;5113122;28;20511;-54
2023/08/22 05:55:43;;;;;;;5.10;0.70;;;;;;;26.80;52.56;95602.44;5114162;28;20435;-54
2023/08/22 05:58:11;;;;;;;0.50;0.40;;;;;;;26.96;51.99;95599.56;5114000;28;20835;-54
2023/08/22 06:00:40;;;;;;;0.60;0.40;;;;;;;27.32;50.23;95604.34;5114138;28;20448;-56
2023/08/22 06:03:09;;;;;;;0.53;0.40;;;;;;;27.83;49.64;95595.66;5113841;28;21026;-56
2023/08/22 06:05:37;;;;;;;0.40;0.40;;;;;;;28.30;48.71;95593.06;5113938;28;20447;-56
2023/08/22 06:08:06;;;;;;;0.40;0.30;;;;;;;27.67;48.71;95534.03;5113516;28;21006;-59
2023/08/22 06:10:34;;;;;;;0.40;0.30;;;;;;;28.77;48.16;95589.56;5113901;27;20450;-54
2023/08/22 06:13:04;;;;;;;0.60;0.33;;;;;;;28.93;46.42;95587.34;5114129;28;20513;-53
2023/08/22 06:15:33;;;;;;;0.80;0.80;;;;;;;28.62;47.08;95553.22;5113410;28;20439;-54
2023/08/22 06:18:01;;;;;;;0.47;0.40;;;;;;;29.31;46.93;95591.50;5113439;28;20455;-53
2023/08/22 06:20:30;;;;;;;0.50;0.40;;;;;;;29.61;45.43;95583.06;5113783;28;20492;-54
2023/08/22 06:22:58;;;;;;;0.70;0.53;;;;;;;30.09;45.70;95582.47;5113817;28;20933;-54
2023/08/22 06:25:27;;;;;;;0.50;0.37;;;;;;;30.30;45.84;95581.72;5113787;28;20440;-54
2023/08/22 06:27:55;;;;;;;0.50;0.37;;;;;;;30.23;44.50;95518.03;5113377;28;21003;-55
2023/08/22 06:30:25;;;;;;;0.90;0.77;;;;;;;30.21;44.24;95578.56;5113606;27;20945;-55
2023/08/22 06:32:53;;;;;;;0.77;0.50;;;;;;;30.25;45.31;95578.56;5113488;28;20463;-55
2023/08/22 06:35:22;;;;;;;0.93;0.83;;;;;;;30.01;45.15;95580.09;5113571;28;20832;-55
2023/08/22 06:37:50;;;;;;;0.90;0.70;;;;;;;30.48;45.03;95574.34;5113523;28;20518;-56
2023/08/22 06:40:20;;;;;;;0.73;0.43;;;;;;;31.10;44.30;95569.22;5113636;28;20440;-56
2023/08/22 06:42:48;;;;;;;0.50;0.50;;;;;;;30.99;43.20;95529.34;5113814;28;20435;-56
2023/08/22 06:45:17;;;;;;;1.00;1.00;;;;;;;31.18;42.97;95526.94;5112656;28;20506;-56
2023/08/22 06:47:46;;;;;;;1.20;1.17;;;;;;;31.14;43.42;95577.44;5113267;28;20471;-55
2023/08/22 06:50:15;;;;;;;1.37;1.27;;;;;;;30.71;44.41;95571.97;5112229;28;20676;-54
2023/08/22 06:52:44;;;;;;;1.77;0.80;;;;;;;30.99;44.77;95575.91;5112384;28;20475;-54
2023/08/22 06:55:12;;;;;;;2.00;1.00;;;;;;;30.95;44.71;95567.69;5112966;28;20966;-54
2023/08/22 06:57:40;;;;;;;4.10;0.80;;;;;;;31.60;43.75;95569.09;5113205;28;20631;-53
2023/08/22 07:00:13;;;;;;;0.63;0.60;;;;;;;32.00;42.93;95533.66;5112836;28;20520;-53
2023/08/22 07:02:42;;;;;;;0.60;0.53;;;;;;;32.61;42.99;95531.28;5112722;28;20451;-54
2023/08/22 07:05:13;;;;;;;0.97;0.97;;;;;;;32.76;42.25;95512.72;5112754;28;20439;-53
2023/08/22 07:07:42;;;;;;;1.07;0.80;;;;;;;33.49;40.94;95554.31;5112386;28;20474;-61
2023/08/22 07:10:13;;;;;;;0.70;0.60;;;;;;;33.60;40.02;95555.78;5102706;28;20509;-54
2023/08/22 07:12:45;;;;;;;0.77;0.77;;;;;;;33.22;40.58;95552.25;5110513;28;20557;-53
2023/08/22 07:15:14;;;;;;;0.80;0.80;;;;;;;32.97;41.21;95546.22;5113199;28;20441;-53
2023/08/22 07:17:42;;;;;;;0.73;0.73;;;;;;;33.13;43.17;95551.97;5112917;28;20423;-53
2023/08/22 07:20:15;;;;;;;1.20;1.20;;;;;;;32.55;43.80;95552.09;5112596;28;20446;-54
2023/08/22 07:22:43;;;;;;;0.70;0.70;;;;;;;33.32;42.44;95547.06;5111726;28;20422;-52
2023/08/22 07:25:12;;;;;;;0.70;0.70;;;;;;;34.17;41.64;95544.03;5112602;28;20788;-53
2023/08/22 07:27:40;;;;;;;0.60;0.60;;;;;;;34.55;40.09;95534.44;5086485;28;20499;-52
2023/08/22 07:30:09;;;;;;;5.30;2.10;;;;;;;34.54;37.23;95537.56;5112032;28;20832;-52
2023/08/22 07:32:38;;;;;;;0.90;0.90;;;;;;;34.29;38.63;95524.19;5112515;28;20474;-53
2023/08/22 07:35:08;;;;;;;0.50;0.50;;;;;;;34.69;37.74;95516.88;5112267;28;20487;-53
2023/08/22 07:37:37;;;;;;;4.00;0.90;;;;;;;35.03;35.16;95522.97;5112376;28;20446;-53
2023/08/22 07:40:07;;;;;;;0.70;0.70;;;;;;;34.89;35.07;95523.22;5111195;28;20451;-53
2023/08/22 07:42:35;;;;;;;0.37;0.37;;;;;;;35.47;35.42;95524.50;5111972;28;20520;-53
2023/08/22 07:45:04;;;;;;;0.70;0.60;;;;;;;35.58;34.15;95528.63;5111986;28;20444;-53
2023/08/22 07:47:33;;;;;;;3.80;0.87;;;;;;;35.71;33.44;95517.72;5111886;28;20531;-53
2023/08/22 07:50:01;;;;;;;0.87;0.87;;;;;;;35.44;33.10;95514.31;5110854;28;20474;-54
2023/08/22 07:52:30;;;;;;;0.47;0.43;;;;;;;35.76;33.27;95508.16;5100558;28;20439;-54
2023/08/22 07:55:00;;;;;;;0.90;0.73;;;;;;;35.66;33.17;95469.34;5110317;28;20439;-53
2023/08/22 07:57:28;;;;;;;0.50;0.37;;;;;;;36.24;33.22;95497.22;5111526;28;20235;-53
2023/08/22 07:59:57;;;;;;;0.83;0.60;;;;;;;36.46;31.58;95503.78;5111951;28;20197;-53
2023/08/22 08:02:25;;;;;;;0.80;0.50;;;;;;;36.96;32.10;95464.66;5111255;28;20236;-53
2023/08/22 08:04:53;;;;;;;0.60;0.50;;;;;;;37.37;31.12;95492.31;5112008;28;20200;-52
2023/08/22 08:07:22;;;;;;;0.50;0.50;;;;;;;37.69;31.29;95501.72;5111342;28;20203;-53
2023/08/22 08:09:50;;;;;;;0.60;0.60;;;;;;;37.86;30.92;95479.09;5112004;28;20601;-54
2023/08/22 08:12:20;;;;;;;1.05;1.05;;;;;;;38.08;30.06;95457.03;5111681;28;20193;-54
2023/08/22 08:14:48;;;;;;;0.57;0.57;;;;;;;38.29;29.27;95506.22;5111651;28;20767;-53
2023/08/22 08:17:18;;;;;;;0.65;0.65;;;;;;;38.18;31.28;95491.91;5111552;28;20276;-54
2023/08/22 08:19:47;;;;;;;0.47;0.47;;;;;;;38.30;29.54;95501.47;5111715;28;20568;-54
2023/08/22 08:22:15;;;;;;;1.10;0.80;;;;;;;39.03;30.74;95495.47;5111341;28;20253;-54
2023/08/22 08:24:44;;;;;;;0.50;0.50;;;;;;;39.79;27.81;95484.00;5112289;28;20650;-54
2023/08/22 08:27:12;;;;;;;0.60;0.60;;;;;;;39.62;27.21;95480.66;5111722;28;20234;-55
2023/08/22 08:29:42;;;;;;;2.53;0.73;;;;;;;39.22;28.16;95479.75;5111897;28;20200;-55
2023/08/22 08:32:10;;;;;;;1.00;0.95;;;;;;;38.55;27.94;95459.88;5110854;28;20197;-54
2023/08/22 08:34:39;;;;;;;0.73;0.40;;;;;;;38.14;28.64;95469.13;5112066;28;20228;-55
2023/08/22 08:37:07;;;;;;;1.35;0.40;;;;;;;38.48;29.08;95479.53;5111899;28;20280;-54
2023/08/22 08:39:36;;;;;;;0.47;0.40;;;;;;;39.48;28.18;95480.41;5111756;28;20197;-54
2023/08/22 08:42:11;;;;;;;0.63;0.63;;;;;;;39.32;29.09;95456.41;5111598;28;20203;-54
2023/08/22 08:44:39;;;;;;;0.65;0.65;;;;;;;38.81;28.60;95485.56;5111256;28;20253;-55
2023/08/22 08:47:10;;;;;;;0.43;0.43;;;;;;;38.99;27.14;95475.38;5085433;28;20212;-55
2023/08/22 08:49:39;;;;;;;0.40;0.40;;;;;;;39.94;28.57;95480.22;5110981;28;20585;-54
2023/08/22 08:52:11;;;;;;;0.43;0.43;;;;;;;40.17;26.15;95455.97;5111463;28;20197;-55
2023/08/22 08:54:41;;;;;;;0.70;0.38;;;;;;;40.45;27.90;95472.25;5111125;28;20277;-54
2023/08/22 08:57:10;;;;;;;0.30;0.30;;;;;;;40.78;26.26;95432.78;5111742;28;20201;-55
2023/08/22 08:59:38;;;;;;;0.65;0.45;;;;;;;41.16;25.74;95458.91;5111310;28;20193;-55
2023/08/22 09:02:15;;;;;;;0.30;0.25;;;;;;;41.55;25.21;95450.84;5110865;28;20197;-56
2023/08/22 09:04:43;;;;;;;0.47;0.47;;;;;;;40.31;26.31;95452.59;5111263;28;20193;-55
2023/08/22 09:07:12;;;;;;;0.40;0.40;;;;;;;41.28;26.15;95443.31;5111463;28;20201;-55
2023/08/22 09:09:40;;;;;;;0.38;0.38;;;;;;;41.88;25.35;95446.13;5111181;28;20793;-55
2023/08/22 09:12:11;;;;;;;9.57;1.27;;;;;;;40.84;25.19;95442.81;5100112;28;20221;-54
2023/08/22 09:14:44;;;;;;;0.68;0.47;;;;;;;40.37;25.80;95448.00;5114105;28;20216;-54
2023/08/22 09:17:16;;;;;;;0.88;0.85;;;;;;;39.97;26.81;95443.19;5114931;28;20197;-57
2023/08/22 09:19:45;;;;;;;0.50;0.50;;;;;;;39.54;28.58;95448.84;5115224;28;20185;-55
2023/08/22 09:22:15;;;;;;;0.50;0.50;;;;;;;39.11;27.04;95446.06;5101358;28;20236;-55
2023/08/22 09:24:51;;;;;;;0.40;0.40;;;;;;;39.73;28.86;95436.63;5114967;28;20197;-56
2023/08/22 09:27:22;;;;;;;0.57;0.57;;;;;;;39.85;27.00;95441.31;5114641;28;20262;-56
2023/08/22 09:29:51;;;;;;;0.60;0.55;;;;;;;40.27;28.73;95436.09;5114506;28;20208;-56
2023/08/22 09:32:21;;;;;;;2.30;0.40;;;;;;;40.91;25.33;95378.59;5113929;28;20196;-56
2023/08/22 09:34:57;;;;;;;0.30;0.30;;;;;;;42.10;23.38;95427.13;5114097;28;20213;-56
2023/08/22 09:37:32;;;;;;;0.40;0.35;;;;;;;41.45;26.04;95410.34;5114768;28;20189;-55
2023/08/22 09:40:00;;;;;;;0.40;0.40;;;;;;;41.24;26.00;95414.84;5114352;28;20294;-56
2023/08/22 09:42:30;;;;;;;0.57;0.50;;;;;;;41.73;23.84;95411.84;5114498;28;20208;-55
2023/08/22 09:44:59;;;;;;;5.05;0.65;;;;;;;41.50;24.39;95418.06;5114579;28;20283;-55
2023/08/22 09:47:30;;;;;;;0.65;0.63;;;;;;;41.69;26.52;95416.78;5114504;28;20208;-55
2023/08/22 09:50:01;;;;;;;0.40;0.40;;;;;;;42.46;24.95;95403.91;5112374;28;20231;-55
2023/08/22 09:52:31;;;;;;;0.50;0.50;;;;;;;42.39;25.11;95396.69;5114842;28;20197;-56
2023/08/22 09:55:00;;;;;;;0.82;0.50;;;;;;;41.32;23.44;95402.19;5113727;28;20248;-55
2023/08/22 09:57:30;;;;;;;0.50;0.50;;;;;;;41.31;23.46;95397.88;5114277;28;20193;-55
2023/08/22 10:00:01;;;;;;;0.80;0.80;;;;;;;41.07;23.84;95400.53;5114139;27;20196;-56
2023/08/22 10:02:33;;;;;;;0.50;0.43;;;;;;;42.38;22.77;95400.69;5113526;28;20733;-55
2023/08/22 10:05:03;;;;;;;0.30;0.30;;;;;;;43.01;21.45;95404.31;5087921;28;20204;-55
2023/08/22 10:07:32;;;;;;;0.40;0.32;;;;;;;43.35;21.88;95367.41;5114447;28;20261;-56
2023/08/22 10:10:00;;;;;;;0.47;0.47;;;;;;;43.21;22.50;95387.69;5114348;28;20193;-55
2023/08/22 10:12:30;;;;;;;0.30;0.20;;;;;;;43.54;22.07;95393.84;5114004;28;20211;-56
2023/08/22 10:15:00;;;;;;;0.80;0.80;;;;;;;42.26;22.43;95404.50;5114142;28;20213;-55
2023/08/22 10:17:30;;;;;;;1.23;0.70;;;;;;;41.44;23.08;95372.66;5113624;28;20320;-56
2023/08/22 10:20:04;;;;;;;0.57;0.45;;;;;;;41.66;22.67;95396.22;5113833;28;20201;-56
2023/08/22 10:22:33;;;;;;;3.50;1.13;;;;;;;41.09;23.14;95386.91;5112946;28;20196;-56
2023/08/22 10:25:04;;;;;;;0.85;0.80;;;;;;;40.99;23.69;95396.50;5113105;28;20232;-56
2023/08/22 10:27:33;;;;;;;0.50;0.50;;;;;;;40.96;23.14;95332.72;5113843;28;20250;-56
2023/08/22 10:30:19;;;;;;;0.50;0.50;;;;;;;40.68;23.48;95384.78;5112993;27;20642;-55
2023/08/22 10:33:06;;;;;;;0.85;0.50;;;;;;;39.90;24.68;95382.41;5091289;28;20193;-55
2023/08/22 10:36:03;;;;;;;0.65;0.65;;;;;;;39.64;24.12;95320.06;5112945;28;20293;-55
2023/08/22 10:38:53;;;;;;;1.25;1.05;;;;;;;40.87;22.58;95386.31;5113293;28;20197;-55
2023/08/22 10:41:23;;;;;;;0.43;0.43;;;;;;;41.21;22.14;95376.09;5113236;28;20192;-55
2023/08/22 10:43:56;;;;;;;0.50;0.50;;;;;;;41.39;22.48;95362.94;5113315;28;20659;-55
2023/08/22 10:46:57;;;;;;;0.47;0.47;;;;;;;43.20;21.31;95377.75;5113242;28;20240;-56
2023/08/22 10:49:31;;;;;;;0.40;0.30;;;;;;;43.30;21.99;95368.03;5113202;28;20247;-56
2023/08/22 10:52:07;;;;;;;0.50;0.50;;;;;;;42.34;20.90;95377.81;5112527;28;20239;-56
2023/08/22 10:54:57;;;;;;;0.40;0.40;;;;;;;42.09;21.75;95361.56;5112863;28;20220;-55
2023/08/22 10:57:26;;;;;;;0.75;0.40;;;;;;;41.95;21.55;95376.16;5113352;28;20193;-56
2023/08/22 11:00:11;;;;;;;0.77;0.77;;;;;;;42.11;21.99;95375.81;5112930;28;20276;-55
2023/08/22 11:02:40;;;;;;;0.40;0.30;;;;;;;42.65;22.53;95362.75;5112659;28;20564;-56
2023/08/22 11:05:12;;;;;;;0.60;0.60;;;;;;;42.01;21.38;95376.28;5112892;28;20308;-55
2023/08/22 11:07:41;;;;;;;0.88;0.88;;;;;;;41.57;22.33;95368.41;5112669;28;20197;-55
2023/08/22 11:10:14;;;;;;;0.35;0.30;;;;;;;43.04;21.82;95360.75;5113062;28;20250;-55
2023/08/22 11:12:43;;;;;;;0.50;0.50;;;;;;;43.93;22.07;95357.41;5112544;28;20189;-56
2023/08/22 11:15:15;;;;;;;0.40;0.40;;;;;;;44.29;21.62;95350.56;5112281;28;20221;-55
2023/08/22 11:17:44;;;;;;;0.30;0.30;;;;;;;42.15;23.24;95359.66;5112172;27;20196;-54
2023/08/22 11:20:16;;;;;;;3.40;0.32;;;;;;;41.23;24.05;95365.25;5112292;28;20205;-55
2023/08/22 11:22:45;;;;;;;0.75;0.50;;;;;;;40.21;23.50;95353.81;5111748;28;20236;-55
2023/08/22 11:25:22;;;;;;;1.15;1.15;;;;;;;40.00;24.48;95355.47;5112193;28;20196;-55
2023/08/22 11:27:50;;;;;;;0.47;0.40;;;;;;;39.59;23.72;95355.91;5111963;28;20206;-54
2023/08/22 11:30:20;;;;;;;0.43;0.43;;;;;;;38.97;25.39;95357.88;5112125;28;20663;-54
2023/08/22 11:32:48;;;;;;;0.43;0.43;;;;;;;38.28;24.53;95330.19;5112265;28;20618;-54
2023/08/22 11:35:19;;;;;;;0.70;0.70;;;;;;;38.87;24.30;95354.28;5112077;28;20241;-55
2023/08/22 11:37:47;;;;;;;0.40;0.40;;;;;;;39.87;24.45;95343.72;5112954;28;20233;-54
2023/08/22 11:40:16;;;;;;;0.40;0.40;;;;;;;41.30;23.34;95342.69;5112004;28;20348;-54
2023/08/22 11:42:48;;;;;;;0.30;0.30;;;;;;;40.93;23.28;95342.00;5111759;28;20229;-54
2023/08/22 11:45:21;;;;;;;1.02;1.00;;;;;;;40.38;24.10;95332.88;5111732;28;20193;-54